Time;durP1;ratioP1;P1;durP2;ratioP2;P2;SDS_P1;SDS_P2;PMS_P1;PMS_P2;Temp;Humidity;BMP_temperature;BMP_pressure;BME280_temperature;BME280_humidity;BME280_pressure;Samples;Min_cycle;Max_cycle;Signal;HPM_P1;HPM_P2
2022/04/27 00:01:14;;;;;;;5.53;1.40;;;9.60;99.90;;;;;;6186659;23;20016;-74
2022/04/27 00:03:46;;;;;;;6.03;1.40;;;9.60;99.90;;;;;;6186764;23;20070;-73
2022/04/27 00:06:14;;;;;;;11.38;2.40;;;9.60;99.90;;;;;;6161128;23;20017;-73
2022/04/27 00:08:43;;;;;;;5.50;1.52;;;9.60;99.90;;;;;;6186838;23;20020;-74
2022/04/27 00:11:13;;;;;;;6.20;1.33;;;9.60;99.90;;;;;;6213504;23;20020;-74
2022/04/27 00:13:39;;;;;;;5.05;2.00;;;9.50;99.90;;;;;;6186991;23;20029;-74
2022/04/27 00:16:05;;;;;;;7.53;1.50;;;9.50;99.90;;;;;;6212214;23;20017;-74
2022/04/27 00:18:36;;;;;;;5.22;1.20;;;9.50;99.90;;;;;;6155450;23;20101;-74
2022/04/27 00:21:08;;;;;;;4.45;1.40;;;9.50;99.90;;;;;;6180975;23;20021;-74
2022/04/27 00:23:35;;;;;;;3.70;1.33;;;9.50;99.90;;;;;;6155458;23;20021;-74
2022/04/27 00:26:00;;;;;;;4.53;1.27;;;9.50;99.90;;;;;;6175521;23;20339;-75
2022/04/27 00:28:31;;;;;;;8.00;2.45;;;9.50;99.90;;;;;;6150748;23;20109;-74
2022/04/27 00:30:58;;;;;;;3.58;1.90;;;9.50;99.90;;;;;;6126539;23;20535;-74
2022/04/27 00:33:23;;;;;;;7.45;1.50;;;9.50;99.90;;;;;;6126219;23;20029;-74
2022/04/27 00:35:49;;;;;;;5.05;1.42;;;9.50;99.80;;;;;;6125804;23;20470;-74
2022/04/27 00:42:24;;;;;;;5.25;1.35;;;9.50;99.40;;;;;;6150417;23;20118;-74
2022/04/27 00:44:51;;;;;;;3.80;1.20;;;9.50;99.20;;;;;;6103804;23;20089;-75
2022/04/27 00:47:19;;;;;;;8.55;1.52;;;9.50;99.20;;;;;;6079873;23;20022;-74
2022/04/27 00:49:51;;;;;;;5.47;1.33;;;9.40;98.90;;;;;;6121655;23;20039;-75
2022/04/27 00:52:19;;;;;;;7.88;1.25;;;9.40;98.70;;;;;;6180469;23;20029;-75
2022/04/27 00:54:53;;;;;;;4.25;1.45;;;9.50;98.80;;;;;;6155636;23;20457;-74
2022/04/27 00:57:25;;;;;;;3.60;1.20;;;9.40;98.90;;;;;;6125991;23;20457;-74
2022/04/27 00:59:52;;;;;;;6.85;1.27;;;9.40;98.80;;;;;;6214060;23;20021;-74
2022/04/27 01:02:20;;;;;;;2.88;1.13;;;9.40;98.90;;;;;;6215826;23;20655;-74
2022/04/27 01:04:46;;;;;;;5.40;1.35;;;9.40;98.80;;;;;;6213287;23;20043;-74
2022/04/27 01:07:15;;;;;;;3.60;1.40;;;9.40;98.90;;;;;;6211690;23;20020;-74
2022/04/27 01:09:42;;;;;;;6.25;1.83;;;9.40;98.90;;;;;;6161863;23;20021;-75
2022/04/27 01:12:08;;;;;;;3.50;1.15;;;9.40;98.70;;;;;;6211056;23;20021;-75
2022/04/27 01:14:44;;;;;;;5.65;1.48;;;9.30;98.40;;;;;;6212713;23;20059;-74
2022/04/27 01:17:11;;;;;;;3.60;0.90;;;9.30;98.40;;;;;;6186378;23;20326;-75
2022/04/27 01:19:37;;;;;;;4.05;1.00;;;9.30;98.20;;;;;;6185337;23;20024;-74
2022/04/27 01:22:04;;;;;;;6.55;1.58;;;9.30;98.10;;;;;;6235986;23;20035;-75
2022/04/27 01:24:30;;;;;;;5.50;1.17;;;9.20;98.30;;;;;;6213152;23;20060;-74
2022/04/27 01:27:00;;;;;;;6.40;1.33;;;9.20;98.20;;;;;;6161853;23;20029;-75
2022/04/27 01:29:26;;;;;;;4.93;1.50;;;9.20;98.10;;;;;;6186102;23;20475;-75
2022/04/27 01:32:12;;;;;;;4.35;1.10;;;9.20;98.10;;;;;;6212577;23;20039;-74
2022/04/27 01:34:37;;;;;;;4.95;1.70;;;9.20;98.00;;;;;;6185718;23;20456;-74
2022/04/27 01:39:52;;;;;;;5.50;1.50;;;9.20;98.00;;;;;;6186022;23;20017;-74
2022/04/27 01:42:19;;;;;;;2.97;1.20;;;9.20;98.20;;;;;;6185873;23;20476;-76
2022/04/27 01:44:45;;;;;;;7.25;1.45;;;9.20;98.30;;;;;;6211380;23;20112;-74
2022/04/27 01:47:11;;;;;;;6.80;1.73;;;9.20;98.20;;;;;;6160585;23;20052;-74
2022/04/27 01:49:38;;;;;;;2.97;1.42;;;9.20;98.10;;;;;;6210964;23;20036;-74
2022/04/27 01:54:48;;;;;;;3.63;1.02;;;9.20;97.80;;;;;;6186860;23;20029;-74
2022/04/27 01:57:14;;;;;;;3.45;1.35;;;9.20;97.80;;;;;;6188038;23;20048;-74
2022/04/27 01:59:41;;;;;;;3.97;1.05;;;9.20;97.80;;;;;;6215067;23;20055;-74
2022/04/27 02:02:08;;;;;;;5.05;1.38;;;9.20;97.70;;;;;;6187780;23;20028;-74
2022/04/27 02:04:42;;;;;;;3.63;1.35;;;9.20;97.70;;;;;;6213683;23;20118;-74
2022/04/27 02:07:08;;;;;;;5.78;1.48;;;9.30;97.70;;;;;;6187801;23;20032;-73
2022/04/27 02:09:35;;;;;;;4.68;1.23;;;9.30;97.70;;;;;;6187742;23;20017;-74
2022/04/27 02:12:05;;;;;;;3.78;1.38;;;9.30;97.70;;;;;;6187483;23;20024;-74
2022/04/27 02:14:36;;;;;;;7.38;1.88;;;9.30;97.80;;;;;;6187781;23;20029;-74
2022/04/27 02:17:02;;;;;;;5.55;1.70;;;9.20;97.80;;;;;;6187606;23;20479;-74
2022/04/27 02:19:28;;;;;;;5.07;1.08;;;9.20;97.80;;;;;;6238133;23;20530;-73
2022/04/27 02:21:53;;;;;;;6.35;1.45;;;9.20;97.90;;;;;;6212432;23;20017;-74
2022/04/27 02:24:19;;;;;;;3.08;1.35;;;9.30;98.00;;;;;;6157485;23;20032;-74
2022/04/27 02:26:48;;;;;;;3.45;1.63;;;9.30;98.20;;;;;;6183168;23;20028;-74
2022/04/27 02:29:16;;;;;;;6.38;1.83;;;9.30;98.30;;;;;;6232905;23;20049;-74
2022/04/27 02:31:46;;;;;;;5.28;1.52;;;9.30;98.30;;;;;;6134395;23;20025;-73
2022/04/27 02:34:15;;;;;;;7.82;2.42;;;9.30;98.20;;;;;;6231320;23;20036;-74
2022/04/27 02:36:44;;;;;;;4.47;1.42;;;9.30;98.30;;;;;;6208302;23;20342;-74
2022/04/27 02:39:31;;;;;;;8.13;2.00;;;9.30;98.30;;;;;;6161790;23;20021;-74
2022/04/27 02:41:58;;;;;;;5.35;1.40;;;9.30;98.10;;;;;;6183096;23;20024;-73
2022/04/27 02:44:24;;;;;;;7.13;1.40;;;9.20;98.00;;;;;;6184530;23;20156;-74
2022/04/27 02:46:49;;;;;;;5.15;1.40;;;9.30;97.90;;;;;;6232555;22;20469;-74
2022/04/27 02:52:17;;;;;;;4.68;1.30;;;9.30;98.00;;;;;;6119367;23;20163;-74
2022/04/27 02:54:43;;;;;;;5.10;1.48;;;9.30;98.10;;;;;;6097388;23;20033;-75
2022/04/27 02:57:09;;;;;;;4.15;1.48;;;9.30;97.80;;;;;;6097567;23;20021;-73
2022/04/27 02:59:35;;;;;;;9.75;1.40;;;9.30;97.80;;;;;;6097340;23;20336;-73
2022/04/27 03:02:01;;;;;;;9.77;2.20;;;9.30;97.60;;;;;;6072743;23;20490;-74
2022/04/27 03:04:47;;;;;;;2.83;1.20;;;9.20;97.80;;;;;;6084808;23;20031;-74
2022/04/27 03:07:13;;;;;;;4.13;1.35;;;9.30;97.80;;;;;;6064121;23;20023;-73
2022/04/27 03:09:44;;;;;;;6.35;1.65;;;9.30;97.70;;;;;;6017434;23;20106;-73
2022/04/27 03:12:19;;;;;;;6.47;1.40;;;9.30;97.90;;;;;;6063840;23;20399;-74
2022/04/27 03:14:45;;;;;;;4.97;1.35;;;9.30;97.90;;;;;;6016470;23;20027;-73
2022/04/27 03:17:14;;;;;;;4.90;1.52;;;9.30;98.10;;;;;;6063885;23;20030;-73
2022/04/27 03:20:00;;;;;;;5.78;1.42;;;9.30;98.20;;;;;;5992236;23;20396;-73
2022/04/27 03:22:25;;;;;;;5.93;2.72;;;9.30;98.20;;;;;;6032207;23;20023;-74
2022/04/27 03:24:53;;;;;;;6.20;1.10;;;9.30;98.30;;;;;;6010638;23;20054;-73
2022/04/27 03:27:20;;;;;;;8.07;1.80;;;9.30;98.60;;;;;;6102317;23;20057;-73
2022/04/27 03:29:50;;;;;;;4.82;1.30;;;9.20;98.60;;;;;;6115949;23;20085;-73
2022/04/27 03:32:19;;;;;;;3.97;1.42;;;9.30;98.60;;;;;;6093036;23;20029;-74
2022/04/27 03:34:46;;;;;;;5.85;1.63;;;9.30;98.60;;;;;;6050475;23;20130;-74
2022/04/27 03:37:12;;;;;;;6.07;2.05;;;9.20;98.80;;;;;;6150498;23;20097;-73
2022/04/27 03:39:38;;;;;;;3.30;1.10;;;9.20;98.90;;;;;;6150755;23;20055;-74
2022/04/27 03:42:08;;;;;;;6.03;1.27;;;9.20;98.90;;;;;;6176406;23;20022;-74
2022/04/27 03:44:33;;;;;;;9.65;1.88;;;9.20;99.00;;;;;;6151174;23;20452;-74
2022/04/27 03:46:59;;;;;;;8.50;1.92;;;9.20;99.20;;;;;;6151317;23;20088;-73
2022/04/27 03:49:30;;;;;;;4.05;1.30;;;9.10;99.50;;;;;;6126456;23;20163;-74
2022/04/27 03:51:59;;;;;;;4.05;1.60;;;9.10;99.40;;;;;;6180578;23;20334;-74
2022/04/27 03:54:29;;;;;;;6.78;1.42;;;9.20;99.50;;;;;;6182453;23;20091;-74
2022/04/27 03:56:54;;;;;;;5.60;1.35;;;9.20;99.50;;;;;;6232556;23;20083;-74
2022/04/27 03:59:21;;;;;;;5.68;1.33;;;9.20;99.70;;;;;;6232035;23;20457;-75
2022/04/27 04:01:53;;;;;;;3.03;1.20;;;9.20;99.80;;;;;;6206131;23;20512;-74
2022/04/27 04:04:22;;;;;;;5.22;1.25;;;9.10;99.90;;;;;;6182897;23;20033;-74
2022/04/27 04:06:49;;;;;;;7.60;1.45;;;9.10;99.90;;;;;;6232398;23;20060;-73
2022/04/27 04:09:15;;;;;;;4.65;1.30;;;9.10;99.90;;;;;;6157070;23;20079;-74
2022/04/27 04:11:45;;;;;;;4.55;1.42;;;9.10;99.80;;;;;;6206834;23;20021;-74
2022/04/27 04:14:11;;;;;;;5.22;1.70;;;9.10;99.80;;;;;;6179964;23;20025;-74
2022/04/27 04:16:37;;;;;;;5.32;1.70;;;9.10;99.90;;;;;;6180910;23;20021;-74
2022/04/27 04:19:02;;;;;;;6.00;1.90;;;9.10;99.90;;;;;;6231966;23;20097;-74
2022/04/27 04:21:28;;;;;;;5.28;1.70;;;9.00;99.90;;;;;;6231968;23;20044;-73
2022/04/27 04:23:54;;;;;;;10.52;1.80;;;9.10;99.90;;;;;;6200895;23;20020;-74
2022/04/27 04:29:19;;;;;;;9.63;1.25;;;9.10;99.70;;;;;;6213141;23;20582;-74
2022/04/27 04:31:44;;;;;;;7.43;1.83;;;9.10;99.40;;;;;;6185726;23;20414;-74
2022/04/27 04:34:10;;;;;;;5.03;1.10;;;9.10;99.20;;;;;;6186066;23;20063;-74
2022/04/27 04:36:40;;;;;;;6.47;1.48;;;9.10;99.00;;;;;;6210814;23;20092;-74
2022/04/27 04:39:09;;;;;;;7.68;1.73;;;9.10;99.00;;;;;;6162293;23;20025;-72
2022/04/27 04:41:38;;;;;;;5.57;1.88;;;9.10;99.00;;;;;;6186420;23;20031;-74
2022/04/27 04:44:05;;;;;;;8.10;1.45;;;9.10;98.80;;;;;;6186209;23;20020;-74
2022/04/27 04:46:31;;;;;;;10.75;1.50;;;9.10;98.50;;;;;;6186006;23;20021;-74
2022/04/27 04:49:06;;;;;;;6.95;1.48;;;9.20;98.40;;;;;;6213462;23;20032;-73
2022/04/27 04:51:34;;;;;;;7.57;2.00;;;9.20;98.40;;;;;;6186246;23;20024;-74
2022/04/27 04:54:06;;;;;;;7.80;1.70;;;9.20;98.40;;;;;;6186038;23;20107;-73
2022/04/27 04:56:32;;;;;;;5.90;1.58;;;9.30;98.20;;;;;;6185428;23;20491;-74
2022/04/27 04:58:59;;;;;;;7.32;1.60;;;9.30;98.00;;;;;;6186288;23;20029;-72
2022/04/27 05:01:25;;;;;;;10.43;1.80;;;9.30;98.00;;;;;;6212924;23;20032;-74
2022/04/27 05:03:51;;;;;;;9.10;1.55;;;9.30;98.00;;;;;;6235861;23;20074;-75
2022/04/27 05:06:17;;;;;;;5.38;1.50;;;9.40;97.90;;;;;;6161439;23;20460;-74
2022/04/27 05:08:52;;;;;;;7.60;1.58;;;9.30;97.70;;;;;;6208206;23;20020;-73
2022/04/27 05:11:18;;;;;;;7.40;1.83;;;9.40;97.60;;;;;;6210969;23;20495;-73
2022/04/27 05:13:44;;;;;;;8.25;1.67;;;9.40;97.60;;;;;;6161093;23;20024;-74
2022/04/27 05:16:11;;;;;;;10.02;2.08;;;9.40;97.50;;;;;;6211004;23;20119;-74
2022/04/27 05:18:39;;;;;;;6.30;1.75;;;9.40;97.80;;;;;;6214501;22;20051;-74
2022/04/27 05:21:05;;;;;;;10.45;2.97;;;9.40;98.30;;;;;;6163035;23;20025;-73
2022/04/27 05:23:34;;;;;;;11.63;2.33;;;9.40;98.90;;;;;;6144633;23;20040;-73
2022/04/27 05:26:00;;;;;;;17.85;3.33;;;9.40;99.80;;;;;;6191291;23;20028;-75
2022/04/27 05:31:54;;;;;;;9.48;2.25;;;9.40;99.90;;;;;;6215389;23;20024;-74
2022/04/27 05:34:08;;;;;;;12.18;2.83;;;9.40;99.90;;;;;;6189396;23;20031;-75
2022/04/27 05:36:37;;;;;;;14.95;2.67;;;9.40;99.90;;;;;;6213870;23;20095;-74
2022/04/27 05:39:03;;;;;;;8.48;1.95;;;9.40;99.90;;;;;;6214143;23;20024;-74
2022/04/27 05:41:28;;;;;;;13.43;2.55;;;9.50;99.90;;;;;;6189227;23;20031;-74
2022/04/27 05:43:56;;;;;;;12.10;2.92;;;9.50;99.90;;;;;;6164652;23;20020;-74
2022/04/27 05:46:22;;;;;;;14.45;3.83;;;9.50;99.90;;;;;;6239479;23;20360;-76
2022/04/27 05:48:49;;;;;;;12.57;2.72;;;9.50;99.90;;;;;;6239802;23;20024;-75
2022/04/27 05:51:19;;;;;;;11.13;3.33;;;9.50;99.90;;;;;;6216484;23;20024;-75
2022/04/27 05:53:51;;;;;;;22.02;5.43;;;9.50;99.90;;;;;;6216473;23;20024;-74
2022/04/27 05:56:19;;;;;;;14.43;2.90;;;9.50;99.90;;;;;;6189306;23;20107;-75
2022/04/27 05:58:45;;;;;;;13.20;3.65;;;9.50;99.90;;;;;;6239501;23;20048;-75
2022/04/27 06:01:11;;;;;;;15.15;3.42;;;9.50;99.90;;;;;;6189191;23;20035;-76
2022/04/27 06:03:38;;;;;;;14.55;3.28;;;9.60;99.90;;;;;;6216441;23;20325;-74
2022/04/27 06:06:12;;;;;;;11.80;2.80;;;9.60;99.90;;;;;;6212142;23;20024;-73
2022/04/27 06:08:41;;;;;;;11.15;2.80;;;9.60;99.90;;;;;;6213907;23;20012;-74
2022/04/27 06:11:10;;;;;;;15.55;3.05;;;9.60;99.90;;;;;;6189692;23;20029;-74
2022/04/27 06:13:37;;;;;;;15.82;2.15;;;9.60;99.90;;;;;;6185450;23;20031;-74
2022/04/27 06:16:05;;;;;;;9.85;1.92;;;9.70;99.90;;;;;;6189144;23;20103;-74
2022/04/27 06:18:53;;;;;;;11.02;2.53;;;9.70;99.90;;;;;;6236006;23;20027;-75
2022/04/27 06:21:23;;;;;;;15.30;4.55;;;9.70;99.90;;;;;;6215821;23;20024;-74
2022/04/27 06:23:49;;;;;;;13.75;3.33;;;9.70;99.90;;;;;;6186869;22;20028;-74
2022/04/27 06:26:18;;;;;;;12.50;2.75;;;9.70;99.90;;;;;;6188847;23;20020;-77
2022/04/27 06:28:43;;;;;;;9.52;3.08;;;9.80;99.90;;;;;;6189189;23;20025;-74
2022/04/27 06:31:18;;;;;;;;;;;9.80;99.90;;;;;;6216784;23;20102;-75
2022/04/27 06:33:45;;;;;;;11.30;2.95;;;9.80;99.90;;;;;;6239486;23;19923;-76
2022/04/27 06:36:12;;;;;;;13.90;3.25;;;9.80;99.90;;;;;;6188971;23;20021;-75
2022/04/27 06:38:37;;;;;;;12.70;3.28;;;9.90;99.90;;;;;;6188590;23;20025;-74
2022/04/27 06:41:06;;;;;;;11.13;2.28;;;9.90;99.90;;;;;;6163546;23;20395;-75
2022/04/27 06:43:34;;;;;;;19.65;2.58;;;9.90;99.90;;;;;;6187473;23;20652;-74
2022/04/27 06:46:01;;;;;;;8.15;2.72;;;10.00;99.90;;;;;;6187420;23;20032;-74
2022/04/27 06:48:28;;;;;;;10.13;2.97;;;10.00;99.90;;;;;;6214172;23;20059;-75
2022/04/27 06:50:57;;;;;;;12.32;2.42;;;10.00;99.90;;;;;;6214638;23;20020;-76
2022/04/27 06:53:25;;;;;;;8.10;1.85;;;10.00;99.90;;;;;;6238160;23;20286;-74
2022/04/27 06:55:51;;;;;;;14.32;2.80;;;10.00;99.90;;;;;;6187849;23;20345;-74
2022/04/27 06:58:18;;;;;;;9.63;2.47;;;10.10;99.90;;;;;;6186292;23;20029;-76
2022/04/27 07:00:46;;;;;;;16.05;2.65;;;10.10;99.90;;;;;;6187077;23;20017;-75
2022/04/27 07:03:21;;;;;;;14.00;2.65;;;10.10;99.90;;;;;;6214153;23;20112;-75
2022/04/27 07:05:47;;;;;;;13.50;2.20;;;10.10;99.90;;;;;;6187212;23;20044;-75
2022/04/27 07:08:14;;;;;;;13.27;2.60;;;10.10;99.90;;;;;;6162289;23;20424;-73
2022/04/27 07:10:42;;;;;;;9.57;2.13;;;10.10;99.90;;;;;;6211635;23;20027;-75
2022/04/27 07:13:16;;;;;;;12.57;2.53;;;10.10;99.90;;;;;;6186559;23;20020;-75
2022/04/27 07:15:41;;;;;;;11.18;2.38;;;10.10;99.90;;;;;;6187224;23;20038;-75
2022/04/27 07:18:10;;;;;;;13.30;2.35;;;10.00;99.90;;;;;;6211580;23;20468;-76
2022/04/27 07:20:51;;;;;;;12.57;1.92;;;10.00;99.90;;;;;;6186992;23;20016;-75
2022/04/27 07:23:20;;;;;;;12.98;2.35;;;10.10;99.90;;;;;;6186548;23;20083;-77
2022/04/27 07:25:49;;;;;;;11.70;2.65;;;10.10;99.90;;;;;;6186929;23;20025;-77
2022/04/27 07:28:16;;;;;;;13.55;2.35;;;10.10;99.90;;;;;;6186889;23;20016;-74
2022/04/27 07:30:42;;;;;;;14.80;2.55;;;10.20;99.90;;;;;;6213781;23;20020;-75
2022/04/27 07:33:09;;;;;;;11.85;2.10;;;10.20;99.90;;;;;;6237446;23;20028;-75
2022/04/27 07:35:40;;;;;;;8.25;2.00;;;10.20;99.90;;;;;;6214405;23;20027;-75
2022/04/27 07:38:06;;;;;;;12.98;2.47;;;10.30;99.90;;;;;;6161889;23;20329;-75
2022/04/27 07:40:33;;;;;;;12.65;3.17;;;10.30;99.90;;;;;;6186726;23;20029;-75
2022/04/27 07:43:03;;;;;;;21.75;2.50;;;10.40;99.90;;;;;;6212573;23;20108;-74
2022/04/27 07:45:30;;;;;;;12.05;2.15;;;10.40;99.90;;;;;;6211673;23;20026;-75
2022/04/27 07:47:56;;;;;;;12.75;2.08;;;10.50;99.90;;;;;;6186700;23;20020;-75
2022/04/27 07:50:22;;;;;;;12.90;2.80;;;10.50;99.80;;;;;;6237130;23;20024;-75
2022/04/27 07:52:48;;;;;;;22.70;4.15;;;10.50;99.50;;;;;;6213864;23;20034;-75
2022/04/27 07:55:16;;;;;;;9.57;3.30;;;10.50;99.60;;;;;;6187109;23;20060;-75
2022/04/27 07:57:47;;;;;;;12.57;2.30;;;10.60;99.30;;;;;;6210716;23;20139;-74
2022/04/27 08:00:22;;;;;;;16.63;2.53;;;10.70;98.90;;;;;;6207987;23;20020;-74
2022/04/27 08:02:48;;;;;;;10.27;2.20;;;10.80;98.40;;;;;;6186087;23;20464;-76
2022/04/27 08:05:16;;;;;;;12.95;2.17;;;10.80;98.20;;;;;;6186711;23;20487;-75
2022/04/27 08:07:44;;;;;;;12.68;2.28;;;10.80;98.10;;;;;;6187104;23;20468;-75
2022/04/27 08:10:15;;;;;;;12.60;3.25;;;10.90;97.90;;;;;;6211761;23;20027;-75
2022/04/27 08:12:43;;;;;;;6.45;1.92;;;11.00;97.90;;;;;;6213130;23;20051;-75
2022/04/27 08:15:10;;;;;;;13.70;2.33;;;11.00;97.60;;;;;;6210810;23;20021;-76
2022/04/27 08:17:54;;;;;;;11.38;2.30;;;11.10;97.70;;;;;;6210449;23;20746;-75
2022/04/27 08:23:11;;;;;;;14.30;4.50;;;11.20;97.80;;;;;;6186392;23;20519;-77
2022/04/27 08:25:40;;;;;;;9.63;1.85;;;11.20;97.70;;;;;;6205786;23;20027;-75
2022/04/27 08:28:07;;;;;;;12.50;2.42;;;11.20;97.30;;;;;;6206682;23;20020;-74
2022/04/27 08:30:38;;;;;;;14.50;2.33;;;11.30;97.20;;;;;;6181850;23;20032;-74
2022/04/27 08:33:05;;;;;;;12.23;2.28;;;11.40;97.20;;;;;;6183256;23;20025;-76
2022/04/27 08:35:34;;;;;;;12.57;1.90;;;11.40;97.30;;;;;;6181471;23;20092;-76
2022/04/27 08:38:04;;;;;;;10.15;2.28;;;11.40;97.40;;;;;;6206896;23;20056;-74
2022/04/27 08:40:32;;;;;;;15.30;3.45;;;11.40;97.20;;;;;;6183603;23;20017;-76
2022/04/27 08:43:01;;;;;;;13.50;2.47;;;11.50;96.80;;;;;;6157011;23;20392;-73
2022/04/27 08:45:29;;;;;;;15.50;2.15;;;11.60;96.60;;;;;;6232456;23;20024;-76
2022/04/27 08:47:55;;;;;;;15.57;2.08;;;11.60;96.50;;;;;;6182423;23;20515;-74
2022/04/27 08:50:25;;;;;;;14.85;2.25;;;11.70;96.40;;;;;;6206797;23;20465;-76
2022/04/27 08:52:52;;;;;;;16.40;2.92;;;11.90;96.20;;;;;;6232767;23;20025;-75
2022/04/27 08:55:19;;;;;;;9.52;2.35;;;11.90;95.90;;;;;;6181678;23;20027;-76
2022/04/27 08:57:53;;;;;;;12.13;2.40;;;12.00;95.60;;;;;;6231114;23;20028;-76
2022/04/27 09:00:24;;;;;;;14.88;2.92;;;12.00;95.70;;;;;;6232753;23;20350;-77
2022/04/27 09:02:53;;;;;;;10.85;2.60;;;12.20;96.00;;;;;;6205342;23;20464;-77
2022/04/27 09:05:26;;;;;;;14.45;2.55;;;12.30;95.90;;;;;;6181742;23;20092;-76
2022/04/27 09:07:58;;;;;;;11.63;2.40;;;12.30;95.30;;;;;;6229176;23;20063;-76
2022/04/27 09:10:28;;;;;;;12.35;2.33;;;12.50;95.10;;;;;;6206104;23;20112;-75
2022/04/27 09:12:57;;;;;;;11.07;1.95;;;12.60;95.00;;;;;;6206001;23;20024;-76
2022/04/27 09:15:26;;;;;;;15.32;3.53;;;12.80;94.70;;;;;;6206379;23;20025;-75
2022/04/27 09:20:58;;;;;;;9.70;1.73;;;13.00;92.70;;;;;;6222959;23;20036;-76
2022/04/27 09:23:39;;;;;;;9.73;2.08;;;13.10;92.90;;;;;;6181390;23;20021;-74
2022/04/27 09:26:22;;;;;;;11.35;2.40;;;13.30;92.00;;;;;;6210024;23;20321;-75
2022/04/27 09:28:49;;;;;;;10.70;2.60;;;13.30;91.10;;;;;;6213345;23;20031;-75
2022/04/27 09:31:27;;;;;;;13.05;2.53;;;13.40;92.00;;;;;;6186262;23;20059;-75
2022/04/27 09:34:00;;;;;;;9.68;2.60;;;13.60;91.80;;;;;;6210571;23;20056;-75
2022/04/27 09:36:27;;;;;;;12.55;3.20;;;13.90;91.80;;;;;;6210872;23;20468;-74
2022/04/27 09:38:55;;;;;;;14.13;3.08;;;14.00;91.20;;;;;;6187671;23;20456;-75
2022/04/27 09:41:42;;;;;;;13.65;3.08;;;14.10;91.30;;;;;;6217348;23;20016;-75
2022/04/27 09:44:28;;;;;;;12.18;2.20;;;14.40;90.60;;;;;;6165582;23;20025;-75
2022/04/27 09:46:54;;;;;;;11.45;2.25;;;14.70;89.70;;;;;;6208209;23;20036;-75
2022/04/27 09:49:20;;;;;;;7.50;1.67;;;15.10;89.80;;;;;;6161097;23;20071;-75
2022/04/27 09:51:49;;;;;;;9.63;2.13;;;15.10;86.00;;;;;;6211189;23;20146;-75
2022/04/27 09:54:41;;;;;;;11.63;2.47;;;15.30;82.50;;;;;;6210827;23;20360;-75
2022/04/27 09:57:09;;;;;;;10.40;2.60;;;15.50;80.80;;;;;;6188319;23;20081;-76
2022/04/27 09:59:37;;;;;;;13.40;2.00;;;15.50;82.60;;;;;;6212512;23;20020;-75
2022/04/27 10:02:17;;;;;;;12.65;2.45;;;15.60;79.90;;;;;;6213300;23;20029;-75
2022/04/27 10:04:45;;;;;;;13.65;2.28;;;15.70;78.60;;;;;;6210427;23;20127;-74
2022/04/27 10:07:13;;;;;;;10.82;3.17;;;15.80;76.60;;;;;;6161354;23;20500;-75
2022/04/27 10:09:42;;;;;;;11.95;2.65;;;15.90;74.50;;;;;;6235539;23;20059;-75
2022/04/27 10:12:14;;;;;;;10.27;2.25;;;15.80;71.90;;;;;;6185324;23;20597;-75
2022/04/27 10:14:40;;;;;;;12.98;2.22;;;15.80;73.20;;;;;;6186188;23;20021;-76
2022/04/27 10:17:06;;;;;;;9.55;2.30;;;16.10;73.60;;;;;;6214193;23;20452;-75
2022/04/27 10:19:43;;;;;;;10.07;2.58;;;16.10;71.30;;;;;;6214932;23;20028;-75
2022/04/27 10:22:36;;;;;;;11.05;2.40;;;16.20;71.20;;;;;;6212144;23;20029;-75
2022/04/27 10:25:24;;;;;;;17.30;3.00;;;16.10;69.00;;;;;;6237135;22;20071;-75
2022/04/27 10:27:51;;;;;;;10.43;1.60;;;16.20;66.20;;;;;;6187032;23;20464;-75
2022/04/27 10:30:43;;;;;;;8.20;1.80;;;16.20;66.00;;;;;;6176208;23;20522;-76
2022/04/27 10:33:09;;;;;;;10.77;1.80;;;16.40;63.80;;;;;;6131348;23;20021;-74
2022/04/27 10:35:37;;;;;;;9.57;2.13;;;16.30;67.60;;;;;;6156082;23;20075;-76
2022/04/27 10:38:07;;;;;;;9.23;2.75;;;16.40;65.90;;;;;;6179458;23;20020;-75
2022/04/27 10:40:42;;;;;;;7.47;1.70;;;15.80;63.20;;;;;;6156294;23;20025;-76
2022/04/27 10:43:18;;;;;;;7.38;1.88;;;15.80;64.30;;;;;;6206254;23;20021;-76
2022/04/27 10:45:50;;;;;;;12.73;1.92;;;16.10;65.80;;;;;;6156188;23;20420;-74
2022/04/27 10:48:49;;;;;;;9.85;2.30;;;16.30;66.40;;;;;;6126280;23;20076;-75
2022/04/27 10:51:17;;;;;;;8.82;1.98;;;16.10;65.10;;;;;;6120966;23;20478;-75
2022/04/27 10:53:49;;;;;;;9.65;2.53;;;16.10;64.40;;;;;;6122058;23;20025;-74
2022/04/27 10:56:27;;;;;;;9.48;2.22;;;16.10;62.10;;;;;;6097300;23;20028;-75
2022/04/27 10:58:53;;;;;;;10.57;1.85;;;16.00;62.90;;;;;;6120374;23;20402;-74
2022/04/27 11:02:26;;;;;;;5.97;1.50;;;15.80;63.90;;;;;;6121549;23;20482;-75
2022/04/27 11:04:53;;;;;;;7.20;1.70;;;15.60;63.80;;;;;;6096959;23;20018;-75
2022/04/27 11:07:33;;;;;;;10.60;2.38;;;16.00;66.60;;;;;;6072784;23;20037;-75
2022/04/27 11:10:14;;;;;;;10.00;2.15;;;16.40;65.40;;;;;;6121605;23;20021;-75
2022/04/27 11:12:51;;;;;;;12.68;2.40;;;16.70;62.40;;;;;;6121648;23;20036;-75
2022/04/27 11:15:25;;;;;;;8.70;1.60;;;16.80;60.30;;;;;;6041350;23;20030;-76
2022/04/27 11:18:02;;;;;;;9.02;1.83;;;17.20;59.50;;;;;;6039289;23;20023;-76
2022/04/27 11:20:38;;;;;;;9.45;1.73;;;17.20;58.30;;;;;;6069132;23;20041;-75
2022/04/27 11:23:20;;;;;;;6.68;1.70;;;16.80;59.10;;;;;;6068184;23;20101;-75
2022/04/27 11:25:51;;;;;;;13.27;2.20;;;16.50;59.30;;;;;;6091951;23;20105;-75
2022/04/27 11:28:17;;;;;;;10.45;2.55;;;16.30;60.60;;;;;;6044266;23;20034;-74
2022/04/27 11:30:51;;;;;;;10.60;2.40;;;16.10;61.60;;;;;;6067930;23;20022;-75
2022/04/27 11:33:17;;;;;;;10.85;2.33;;;16.10;64.00;;;;;;6111535;23;20037;-76
2022/04/27 11:35:45;;;;;;;10.38;2.10;;;15.70;63.50;;;;;;6151277;23;20070;-76
2022/04/27 11:38:32;;;;;;;9.95;2.30;;;15.60;64.50;;;;;;6126160;23;20088;-76
2022/04/27 11:40:58;;;;;;;8.63;2.17;;;15.70;65.80;;;;;;6126767;23;20100;-76
2022/04/27 11:43:31;;;;;;;10.45;1.88;;;15.70;65.80;;;;;;6127309;23;20492;-77
2022/04/27 11:46:21;;;;;;;6.82;2.03;;;15.70;65.40;;;;;;6171929;23;20028;-76
2022/04/27 11:48:56;;;;;;;9.23;1.85;;;15.70;66.20;;;;;;6121931;23;20095;-77
2022/04/27 11:51:24;;;;;;;7.00;1.70;;;15.70;66.70;;;;;;6149515;23;20022;-76
2022/04/27 11:53:49;;;;;;;8.32;1.70;;;15.40;66.00;;;;;;6151242;23;20029;-75
2022/04/27 11:56:17;;;;;;;7.45;2.15;;;15.70;66.40;;;;;;6126893;23;20040;-76
2022/04/27 11:58:47;;;;;;;13.65;2.35;;;15.80;65.80;;;;;;6127076;23;20522;-75
2022/04/27 12:01:23;;;;;;;10.27;2.00;;;16.00;65.30;;;;;;6126659;23;20075;-75
2022/04/27 12:03:49;;;;;;;9.80;2.03;;;16.10;64.30;;;;;;6151256;23;20056;-76
2022/04/27 12:06:19;;;;;;;9.32;2.00;;;16.20;65.00;;;;;;6126402;23;20093;-75
2022/04/27 12:08:48;;;;;;;9.63;1.92;;;16.40;63.80;;;;;;6174736;23;20026;-75
2022/04/27 12:11:22;;;;;;;8.30;2.03;;;16.20;62.90;;;;;;6126038;23;20024;-75
2022/04/27 12:14:08;;;;;;;11.23;2.10;;;16.20;62.90;;;;;;6145999;23;20030;-76
2022/04/27 12:16:42;;;;;;;9.02;2.20;;;16.10;65.50;;;;;;6174186;23;20017;-75
2022/04/27 12:19:13;;;;;;;11.40;2.00;;;15.70;64.50;;;;;;6125930;23;20134;-77
2022/04/27 12:21:45;;;;;;;11.13;1.60;;;16.00;65.40;;;;;;6126049;23;20105;-76
2022/04/27 12:24:20;;;;;;;9.55;2.20;;;16.20;64.10;;;;;;6125127;23;20029;-76
2022/04/27 12:26:48;;;;;;;7.63;1.90;;;16.60;63.30;;;;;;6149859;23;20029;-75
2022/04/27 12:29:22;;;;;;;6.57;1.63;;;16.60;62.40;;;;;;6101924;23;20401;-77
2022/04/27 12:31:56;;;;;;;8.32;1.80;;;16.70;60.90;;;;;;6149297;23;20528;-75
2022/04/27 12:37:36;;;;;;;9.52;2.00;;;16.60;59.90;;;;;;6174855;23;20030;-75
2022/04/27 12:40:14;;;;;;;10.20;1.83;;;16.60;58.70;;;;;;6151437;23;20029;-76
2022/04/27 12:42:59;;;;;;;9.68;1.98;;;16.50;59.10;;;;;;6232292;23;20021;-75
2022/04/27 12:45:26;;;;;;;12.48;1.98;;;16.30;59.70;;;;;;6206397;23;20028;-76
2022/04/27 12:47:52;;;;;;;10.15;2.03;;;16.40;60.50;;;;;;6232019;23;20025;-75
2022/04/27 12:50:18;;;;;;;9.13;2.03;;;16.10;60.90;;;;;;6181543;23;20428;-75
2022/04/27 12:52:47;;;;;;;8.98;1.70;;;16.10;61.30;;;;;;6181461;23;20053;-75
2022/04/27 12:55:15;;;;;;;7.97;1.70;;;16.30;60.60;;;;;;6232016;23;20032;-75
2022/04/27 12:57:53;;;;;;;6.90;1.67;;;16.10;59.20;;;;;;6234204;23;20036;-75
2022/04/27 13:00:21;;;;;;;4.72;1.70;;;16.20;59.00;;;;;;6231703;23;20408;-75
2022/04/27 13:02:56;;;;;;;9.07;1.73;;;16.10;59.10;;;;;;6208206;23;20029;-75
2022/04/27 13:05:23;;;;;;;6.95;1.92;;;16.10;59.10;;;;;;6232143;23;20025;-75
2022/04/27 13:07:59;;;;;;;10.70;1.77;;;16.20;60.40;;;;;;6232173;23;20407;-76
2022/04/27 13:13:09;;;;;;;7.30;1.30;;;16.60;58.80;;;;;;6232089;23;20025;-75
2022/04/27 13:15:38;;;;;;;8.77;2.15;;;16.80;58.50;;;;;;6181511;23;20771;-77
2022/04/27 13:18:04;;;;;;;10.65;2.25;;;16.60;58.10;;;;;;6156982;23;20461;-78
2022/04/27 13:20:31;;;;;;;9.02;2.10;;;16.40;58.20;;;;;;6155876;23;20020;-75
2022/04/27 13:22:59;;;;;;;9.15;2.53;;;16.10;58.90;;;;;;6157138;23;20033;-77
2022/04/27 13:25:27;;;;;;;6.78;1.50;;;16.10;60.30;;;;;;6186076;23;20028;-77
2022/04/27 13:27:52;;;;;;;9.57;2.30;;;16.30;59.90;;;;;;6186025;23;20024;-75
2022/04/27 13:30:19;;;;;;;7.28;1.40;;;16.20;61.10;;;;;;6186076;23;20100;-77
2022/04/27 13:32:48;;;;;;;7.18;1.75;;;16.60;61.00;;;;;;6213330;23;20341;-77